createdAt,value
2023-02-19T00:00:09.051Z,0.80
2023-02-19T00:02:35.612Z,0.70
2023-02-19T00:05:01.923Z,0.35
2023-02-19T00:07:28.216Z,0.68
2023-02-19T00:09:54.695Z,0.70
2023-02-19T00:12:20.929Z,0.60
2023-02-19T00:14:47.170Z,0.50
2023-02-19T00:17:13.466Z,0.60
2023-02-19T00:19:39.856Z,0.50
2023-02-19T00:22:06.113Z,0.57
2023-02-19T00:24:32.376Z,0.52
2023-02-19T00:26:58.641Z,0.43
2023-02-19T00:29:25.068Z,0.60
2023-02-19T00:31:51.428Z,0.70
2023-02-19T00:34:17.852Z,0.40
2023-02-19T00:36:45.561Z,0.60
2023-02-19T00:39:15.225Z,0.30
2023-02-19T00:41:41.478Z,0.40
2023-02-19T00:44:10.512Z,0.47
2023-02-19T00:46:38.070Z,0.20
2023-02-19T00:49:05.814Z,0.30
2023-02-19T00:51:34.314Z,0.40
2023-02-19T00:54:00.684Z,0.40
2023-02-19T00:56:27.094Z,0.30
2023-02-19T00:58:53.449Z,0.30
2023-02-19T01:01:20.261Z,0.47
2023-02-19T01:03:47.160Z,0.40
2023-02-19T01:06:14.584Z,0.40
2023-02-19T01:08:40.875Z,0.45
2023-02-19T01:11:08.102Z,0.55
2023-02-19T01:13:34.682Z,0.52
2023-02-19T01:16:05.318Z,0.60
2023-02-19T01:18:31.848Z,0.40
2023-02-19T01:20:58.145Z,0.40
2023-02-19T01:23:24.680Z,0.50
2023-02-19T01:25:51.055Z,0.32
2023-02-19T01:28:17.377Z,0.43
2023-02-19T01:30:43.624Z,0.40
2023-02-19T01:33:10.093Z,0.35
2023-02-19T01:35:39.514Z,0.45
2023-02-19T01:38:08.240Z,0.55
2023-02-19T01:40:36.959Z,0.30
2023-02-19T01:43:03.723Z,0.20
2023-02-19T01:45:32.090Z,0.20
2023-02-19T01:48:18.694Z,0.20
2023-02-19T01:50:47.374Z,0.30
2023-02-19T01:53:15.616Z,0.28
2023-02-19T01:55:42.388Z,0.30
2023-02-19T01:58:09.856Z,0.40
2023-02-19T02:00:36.802Z,1.30
2023-02-19T02:03:03.949Z,0.25
2023-02-19T02:05:32.924Z,0.50
2023-02-19T02:08:20.661Z,0.35
2023-02-19T02:10:47.015Z,0.32
2023-02-19T02:13:13.297Z,0.40
2023-02-19T02:15:47.029Z,0.30
2023-02-19T02:18:13.320Z,0.30
2023-02-19T02:21:03.485Z,0.38
2023-02-19T02:23:32.489Z,0.30
2023-02-19T02:26:37.396Z,0.13
2023-02-19T02:29:31.702Z,0.32
2023-02-19T02:32:04.945Z,0.40
2023-02-19T02:34:36.633Z,0.35
2023-02-19T02:37:04.191Z,0.28
2023-02-19T02:39:32.163Z,0.30
2023-02-19T02:42:17.593Z,0.20
2023-02-19T02:45:07.622Z,0.30
2023-02-19T02:47:42.278Z,0.35
2023-02-19T02:50:15.618Z,0.20
2023-02-19T02:53:02.768Z,0.50
2023-02-19T02:55:31.220Z,0.25
2023-02-19T02:57:57.516Z,0.20
2023-02-19T03:00:24.516Z,0.30
2023-02-19T03:02:50.800Z,0.13
2023-02-19T03:05:38.059Z,0.30
2023-02-19T03:08:09.772Z,0.30
2023-02-19T03:10:51.143Z,0.30
2023-02-19T03:13:43.229Z,0.20
2023-02-19T03:16:36.796Z,0.30
2023-02-19T03:19:19.668Z,0.30
2023-02-19T03:21:49.768Z,0.32
2023-02-19T03:24:36.664Z,0.10
2023-02-19T03:27:04.069Z,0.28
2023-02-19T03:29:31.900Z,0.25
2023-02-19T03:32:10.361Z,0.40
2023-02-19T03:34:48.383Z,0.10
2023-02-19T03:37:34.796Z,0.20
2023-02-19T03:40:03.157Z,0.30
2023-02-19T03:42:37.493Z,0.10
2023-02-19T03:45:44.958Z,0.47
2023-02-19T03:48:28.313Z,0.20
2023-02-19T03:51:13.132Z,0.25
2023-02-19T03:53:55.804Z,0.32
2023-02-19T03:56:25.196Z,0.40
2023-02-19T03:59:00.373Z,0.20
2023-02-19T04:01:37.881Z,0.45
2023-02-19T04:04:04.220Z,0.10
2023-02-19T04:06:32.835Z,0.40
2023-02-19T04:09:01.098Z,0.38
2023-02-19T04:11:28.693Z,0.20
2023-02-19T04:14:00.571Z,0.35
2023-02-19T04:16:29.036Z,0.20
2023-02-19T04:18:58.443Z,0.30
2023-02-19T04:21:25.452Z,0.20
2023-02-19T04:23:51.884Z,0.40
2023-02-19T04:26:21.780Z,0.20
2023-02-19T04:28:48.080Z,0.20
2023-02-19T04:31:14.985Z,0.20
2023-02-19T04:33:41.270Z,0.50
2023-02-19T04:36:07.921Z,0.30
2023-02-19T04:38:34.158Z,0.40
2023-02-19T04:41:00.442Z,0.30
2023-02-19T04:43:26.733Z,0.40
2023-02-19T04:45:54.616Z,0.32
2023-02-19T04:48:20.991Z,0.30
2023-02-19T04:50:47.293Z,0.22
2023-02-19T04:53:13.682Z,0.20
2023-02-19T04:55:39.911Z,0.20
2023-02-19T04:58:07.550Z,0.30
2023-02-19T05:00:33.921Z,0.30
2023-02-19T05:03:00.975Z,0.20
2023-02-19T05:05:27.420Z,0.35
2023-02-19T05:07:54.100Z,0.40
2023-02-19T05:10:20.424Z,0.25
2023-02-19T05:12:46.719Z,0.40
2023-02-19T05:15:12.983Z,0.35
2023-02-19T05:17:39.547Z,0.15
2023-02-19T05:20:07.305Z,0.40
2023-02-19T05:22:33.650Z,0.50
2023-02-19T05:24:59.934Z,0.30
2023-02-19T05:27:26.239Z,0.22
2023-02-19T05:29:52.572Z,0.28
2023-02-19T05:32:18.805Z,0.60
2023-02-19T05:34:45.093Z,0.20
2023-02-19T05:37:11.325Z,0.40
2023-02-19T05:39:37.617Z,0.32
2023-02-19T05:42:03.874Z,0.20
2023-02-19T05:44:30.156Z,0.40
2023-02-19T05:46:56.397Z,0.30
2023-02-19T05:49:22.637Z,0.28
2023-02-19T05:51:51.761Z,0.30
2023-02-19T05:54:18.067Z,0.50
2023-02-19T05:56:44.346Z,0.20
2023-02-19T05:59:21.179Z,0.40
2023-02-19T06:01:49.183Z,0.40
2023-02-19T06:04:15.869Z,0.45
2023-02-19T06:06:42.344Z,0.20
2023-02-19T06:09:09.162Z,0.20
2023-02-19T06:11:35.697Z,0.30
2023-02-19T06:14:02.167Z,0.30
2023-02-19T06:16:29.187Z,0.25
2023-02-19T06:18:55.611Z,0.50
2023-02-19T06:21:21.969Z,0.40
2023-02-19T06:23:48.256Z,0.20
2023-02-19T06:26:19.418Z,0.30
2023-02-19T06:28:46.796Z,0.20
2023-02-19T06:31:13.998Z,0.30
2023-02-19T06:33:40.937Z,0.30
2023-02-19T06:36:08.517Z,0.30
2023-02-19T06:38:34.734Z,0.32
2023-02-19T06:41:01.898Z,0.20
2023-02-19T06:43:28.423Z,0.10
2023-02-19T06:45:54.843Z,0.17
2023-02-19T06:48:21.151Z,0.10
2023-02-19T06:50:47.416Z,0.15
2023-02-19T06:53:13.700Z,0.20
2023-02-19T06:55:40.456Z,0.10
2023-02-19T06:58:07.742Z,0.10
2023-02-19T07:00:34.407Z,0.20
2023-02-19T07:03:00.992Z,0.30
2023-02-19T07:05:27.379Z,0.22
2023-02-19T07:07:53.619Z,0.13
2023-02-19T07:10:19.939Z,0.30
2023-02-19T07:12:47.508Z,0.35
2023-02-19T07:15:13.853Z,0.22
2023-02-19T07:17:40.137Z,0.32
2023-02-19T07:20:06.491Z,0.30
2023-02-19T07:22:32.770Z,0.50
2023-02-19T07:24:59.457Z,0.38
2023-02-19T07:27:25.707Z,0.50
2023-02-19T07:29:51.994Z,0.20
2023-02-19T07:32:18.250Z,0.20
2023-02-19T07:34:44.487Z,0.57
2023-02-19T07:37:10.798Z,0.38
2023-02-19T07:39:37.111Z,0.40
2023-02-19T07:42:03.438Z,0.60
2023-02-19T07:44:30.000Z,0.52
2023-02-19T07:46:56.498Z,0.50
2023-02-19T07:49:22.732Z,0.50
2023-02-19T07:51:49.036Z,0.38
2023-02-19T07:54:15.402Z,0.30
2023-02-19T07:56:41.923Z,0.45
2023-02-19T07:59:08.169Z,0.30
2023-02-19T08:02:10.783Z,0.55
2023-02-19T08:04:37.120Z,0.60
2023-02-19T08:07:05.424Z,0.32
2023-02-19T08:09:33.412Z,0.28
2023-02-19T08:12:18.102Z,0.40
2023-02-19T08:14:44.434Z,0.35
2023-02-19T08:17:10.748Z,0.40
2023-02-19T08:19:37.135Z,0.43
2023-02-19T08:22:03.437Z,0.35
2023-02-19T08:24:31.130Z,0.40
2023-02-19T08:26:57.449Z,0.40
2023-02-19T08:29:23.757Z,0.82
2023-02-19T08:31:50.839Z,0.30
2023-02-19T08:34:17.150Z,0.20
2023-02-19T08:36:44.098Z,0.20
2023-02-19T08:39:10.423Z,0.40
2023-02-19T08:41:36.686Z,0.32
2023-02-19T08:44:02.983Z,0.50
2023-02-19T08:46:29.257Z,0.30
2023-02-19T08:48:55.537Z,0.10
2023-02-19T08:51:21.864Z,0.30
2023-02-19T08:53:48.350Z,0.13
2023-02-19T08:56:15.959Z,0.10
2023-02-19T08:58:42.309Z,0.30
2023-02-19T09:01:10.240Z,0.30
2023-02-19T09:03:36.846Z,0.05
2023-02-19T09:06:03.223Z,0.40
2023-02-19T09:08:29.508Z,0.40
2023-02-19T09:11:03.332Z,0.52
2023-02-19T09:13:32.654Z,0.20
2023-02-19T09:15:59.278Z,0.20
2023-02-19T09:18:26.021Z,0.25
2023-02-19T09:20:52.486Z,0.22
2023-02-19T09:23:18.767Z,0.40
2023-02-19T09:25:45.031Z,0.40
2023-02-19T09:28:11.431Z,0.40
2023-02-19T09:30:37.787Z,0.38
2023-02-19T09:33:05.439Z,0.25
2023-02-19T09:35:32.004Z,0.40
2023-02-19T09:37:59.250Z,0.30
2023-02-19T09:40:25.530Z,0.20
2023-02-19T09:42:51.799Z,0.30
2023-02-19T09:45:25.400Z,0.32
2023-02-19T09:47:56.569Z,0.30
2023-02-19T09:50:26.211Z,0.20
2023-02-19T09:52:58.022Z,0.20
2023-02-19T09:55:30.373Z,0.20
2023-02-19T09:57:57.974Z,0.30
2023-02-19T10:00:25.755Z,0.40
2023-02-19T10:03:01.463Z,0.30
2023-02-19T10:05:28.200Z,0.20
2023-02-19T10:07:55.444Z,0.30
2023-02-19T10:10:30.324Z,0.20
2023-02-19T10:13:02.845Z,0.10
2023-02-19T10:15:31.990Z,0.20
2023-02-19T10:17:58.491Z,0.20
2023-02-19T10:20:26.661Z,0.40
2023-02-19T10:23:10.904Z,0.30
2023-02-19T10:25:39.782Z,0.20
2023-02-19T10:28:11.667Z,0.30
2023-02-19T10:30:38.017Z,0.30
2023-02-19T10:33:09.069Z,0.35
2023-02-19T10:35:36.802Z,0.20
2023-02-19T10:38:06.593Z,0.20
2023-02-19T10:40:33.180Z,0.10
2023-02-19T10:43:01.503Z,0.10
2023-02-19T10:45:45.333Z,0.10
2023-02-19T10:48:24.641Z,0.00
2023-02-19T10:50:56.993Z,0.00
2023-02-19T10:53:24.269Z,0.10
2023-02-19T10:56:10.831Z,0.00
2023-02-19T10:58:42.319Z,0.08
2023-02-19T11:01:15.223Z,0.00
2023-02-19T11:03:41.693Z,0.00
2023-02-19T11:06:09.143Z,0.00
2023-02-19T11:08:45.320Z,0.00
2023-02-19T11:11:21.348Z,0.00
2023-02-19T11:13:47.698Z,0.00
2023-02-19T11:16:13.988Z,0.00
2023-02-19T11:18:40.968Z,0.00
2023-02-19T11:21:08.090Z,0.05
2023-02-19T11:23:35.990Z,0.03
2023-02-19T11:26:07.127Z,0.00
2023-02-19T11:28:35.001Z,0.00
2023-02-19T11:31:14.012Z,0.00
2023-02-19T11:33:46.539Z,0.00
2023-02-19T11:38:39.031Z,0.00
2023-02-19T11:41:28.554Z,0.00
2023-02-19T11:44:11.756Z,0.00
2023-02-19T11:46:57.867Z,0.00
2023-02-19T11:49:35.625Z,0.00
2023-02-19T11:52:08.540Z,0.00
2023-02-19T11:54:37.840Z,0.00
2023-02-19T11:57:12.418Z,0.00
2023-02-19T11:59:52.910Z,0.00
2023-02-19T12:02:27.134Z,0.00
2023-02-19T12:04:56.468Z,0.00
2023-02-19T12:07:53.962Z,0.00
2023-02-19T12:10:20.463Z,0.00
2023-02-19T12:12:54.704Z,0.00
2023-02-19T12:15:24.364Z,0.00
2023-02-19T12:17:57.413Z,0.00
2023-02-19T12:20:31.916Z,0.00
2023-02-19T12:23:13.524Z,0.00
2023-02-19T12:25:42.333Z,0.00
2023-02-19T12:28:20.932Z,0.00
2023-02-19T12:31:10.316Z,0.00
2023-02-19T12:33:36.550Z,0.00
2023-02-19T12:36:02.807Z,0.00
2023-02-19T12:38:36.962Z,0.00
2023-02-19T12:41:21.164Z,0.00
2023-02-19T12:43:55.786Z,0.00
2023-02-19T12:46:25.963Z,0.00
2023-02-19T12:48:59.100Z,0.00
2023-02-19T12:51:43.091Z,0.00
2023-02-19T12:54:24.969Z,0.00
2023-02-19T12:56:55.104Z,0.00
2023-02-19T12:59:29.134Z,0.00
2023-02-19T13:02:01.574Z,0.00
2023-02-19T13:04:27.938Z,0.00
2023-02-19T13:06:58.117Z,0.00
2023-02-19T13:09:33.546Z,0.00
2023-02-19T13:12:03.100Z,0.00
2023-02-19T13:14:33.176Z,0.00
2023-02-19T13:17:19.730Z,0.00
2023-02-19T13:19:48.276Z,0.00
2023-02-19T13:22:42.294Z,0.00
2023-02-19T13:25:09.864Z,0.00
2023-02-19T13:30:18.886Z,0.00
2023-02-19T13:33:03.936Z,0.00
2023-02-19T13:35:55.128Z,0.10
2023-02-19T13:38:21.493Z,0.00
2023-02-19T13:40:55.610Z,0.00
2023-02-19T13:43:29.192Z,0.00
2023-02-19T13:45:58.264Z,0.00
2023-02-19T13:48:24.571Z,0.00
2023-02-19T13:51:11.108Z,0.00
2023-02-19T13:53:44.738Z,0.00
2023-02-19T13:56:30.038Z,0.00
2023-02-19T13:59:12.376Z,0.00
2023-02-19T14:01:53.716Z,0.00
2023-02-19T14:04:21.836Z,0.00
2023-02-19T14:07:03.269Z,0.00
2023-02-19T14:09:43.787Z,0.10
2023-02-19T14:12:10.338Z,0.05
2023-02-19T14:14:40.997Z,0.00
2023-02-19T14:17:10.160Z,0.00
2023-02-19T14:19:39.403Z,0.00
2023-02-19T14:22:25.586Z,0.00
2023-02-19T14:24:53.276Z,0.00
2023-02-19T14:27:20.564Z,0.00
2023-02-19T14:29:47.159Z,0.00
2023-02-19T14:32:18.121Z,0.00
2023-02-19T14:34:44.768Z,0.00
2023-02-19T14:37:19.389Z,0.03
2023-02-19T14:39:46.872Z,0.00
2023-02-19T14:42:13.123Z,0.00
2023-02-19T14:44:48.353Z,0.00
2023-02-19T14:47:16.792Z,0.00
2023-02-19T14:49:46.120Z,0.00
2023-02-19T14:52:20.392Z,0.00
2023-02-19T14:54:54.511Z,0.00
2023-02-19T14:57:41.234Z,0.00
2023-02-19T15:00:22.336Z,0.00
2023-02-19T15:02:49.815Z,0.00
2023-02-19T15:05:16.537Z,0.00
2023-02-19T15:07:43.285Z,0.00
2023-02-19T15:10:11.179Z,0.00
2023-02-19T15:12:46.091Z,0.00
2023-02-19T15:15:17.167Z,0.00
2023-02-19T15:17:43.568Z,0.00
2023-02-19T15:20:11.133Z,0.00
2023-02-19T15:22:39.871Z,0.00
2023-02-19T15:25:06.295Z,0.00
2023-02-19T15:27:37.302Z,0.00
2023-02-19T15:30:04.012Z,0.00
2023-02-19T15:32:30.468Z,0.00
2023-02-19T15:34:58.061Z,0.00
2023-02-19T15:37:29.850Z,0.00
2023-02-19T15:39:56.702Z,0.00
2023-02-19T15:42:30.338Z,0.03
2023-02-19T15:45:11.976Z,0.00
2023-02-19T15:47:41.152Z,0.10
2023-02-19T15:50:15.711Z,0.10
2023-02-19T15:52:46.584Z,0.00
2023-02-19T15:55:21.730Z,0.00
2023-02-19T15:57:52.545Z,0.00
2023-02-19T16:00:26.858Z,0.00
2023-02-19T16:02:53.251Z,0.00
2023-02-19T16:05:27.243Z,0.00
2023-02-19T16:08:06.612Z,0.00
2023-02-19T16:10:32.889Z,0.00
2023-02-19T16:13:00.474Z,0.00
2023-02-19T16:15:28.145Z,0.00
2023-02-19T16:17:54.716Z,0.03
2023-02-19T16:20:31.965Z,0.00
2023-02-19T16:23:00.305Z,0.00
2023-02-19T16:25:29.640Z,0.00
2023-02-19T16:27:56.532Z,0.10
2023-02-19T16:30:26.567Z,0.00
2023-02-19T16:33:11.584Z,0.00
2023-02-19T16:35:39.795Z,0.00
2023-02-19T16:38:16.050Z,0.03
2023-02-19T16:40:45.327Z,0.03
2023-02-19T16:43:16.781Z,0.00
2023-02-19T16:45:43.867Z,0.00
2023-02-19T16:48:10.258Z,0.00
2023-02-19T16:50:36.760Z,0.10
2023-02-19T16:53:03.968Z,0.00
2023-02-19T16:55:32.462Z,0.10
2023-02-19T16:57:58.772Z,0.00
2023-02-19T17:00:26.115Z,0.00
2023-02-19T17:02:57.194Z,0.00
2023-02-19T17:05:25.470Z,0.00
2023-02-19T17:07:51.976Z,0.00
2023-02-19T17:10:25.383Z,0.00
2023-02-19T17:12:52.504Z,0.00
2023-02-19T17:15:18.817Z,0.00
2023-02-19T17:17:45.322Z,0.00
2023-02-19T17:20:21.206Z,0.00
2023-02-19T17:22:47.444Z,0.00
2023-02-19T17:25:13.763Z,0.00
2023-02-19T17:27:41.095Z,0.00
2023-02-19T17:30:17.581Z,0.00
2023-02-19T17:32:43.891Z,0.00
2023-02-19T17:35:10.396Z,0.00
2023-02-19T17:37:36.768Z,0.00
2023-02-19T17:40:03.251Z,0.00
2023-02-19T17:42:29.531Z,0.00
2023-02-19T17:44:55.931Z,0.00
2023-02-19T17:47:22.601Z,0.00
2023-02-19T17:49:48.864Z,0.05
2023-02-19T17:52:17.548Z,0.00
2023-02-19T17:54:43.997Z,0.00
2023-02-19T17:57:11.305Z,0.00
2023-02-19T17:59:37.619Z,0.00
2023-02-19T18:02:03.971Z,0.00
2023-02-19T18:04:30.544Z,0.00
2023-02-19T18:06:56.966Z,0.00
2023-02-19T18:09:24.246Z,0.00
2023-02-19T18:11:50.588Z,0.00
2023-02-19T18:14:16.837Z,0.00
2023-02-19T18:16:49.863Z,0.00
2023-02-19T18:19:16.601Z,0.00
2023-02-19T18:21:42.885Z,0.00
2023-02-19T18:24:09.193Z,0.00
2023-02-19T18:26:35.481Z,0.00
2023-02-19T18:29:01.724Z,0.00
2023-02-19T18:31:28.083Z,0.00
2023-02-19T18:33:54.400Z,0.00
2023-02-19T18:36:20.691Z,0.00
2023-02-19T18:38:47.030Z,0.00
2023-02-19T18:41:13.744Z,0.25
2023-02-19T18:43:40.914Z,0.00
2023-02-19T18:46:08.406Z,0.00
2023-02-19T18:48:34.747Z,0.00
2023-02-19T18:51:01.105Z,0.00
2023-02-19T18:53:27.439Z,0.00
2023-02-19T18:55:53.800Z,0.00
2023-02-19T18:58:20.120Z,0.00
2023-02-19T19:00:46.694Z,0.00
2023-02-19T19:03:12.960Z,0.00
2023-02-19T19:05:39.263Z,0.00
2023-02-19T19:08:05.514Z,0.00
2023-02-19T19:10:31.852Z,0.00
2023-02-19T19:12:58.660Z,0.00
2023-02-19T19:15:25.210Z,0.08
2023-02-19T19:17:52.024Z,0.00
2023-02-19T19:20:19.245Z,0.00
2023-02-19T19:22:45.636Z,0.00
2023-02-19T19:25:12.298Z,0.00
2023-02-19T19:27:38.621Z,0.00
2023-02-19T19:30:05.232Z,0.00
2023-02-19T19:32:31.547Z,0.00
2023-02-19T19:34:57.873Z,0.00
2023-02-19T19:37:24.985Z,0.00
2023-02-19T19:39:52.006Z,0.00
2023-02-19T19:42:18.319Z,0.00
2023-02-19T19:44:45.353Z,0.00
2023-02-19T19:47:11.638Z,0.00
2023-02-19T19:49:37.945Z,0.10
2023-02-19T19:52:04.175Z,0.00
2023-02-19T19:54:30.795Z,0.00
2023-02-19T19:56:57.097Z,0.00
2023-02-19T19:59:23.458Z,0.10
2023-02-19T20:01:54.978Z,0.00
2023-02-19T20:04:21.930Z,0.00
2023-02-19T20:06:48.465Z,0.00
2023-02-19T20:09:14.915Z,0.03
2023-02-19T20:11:48.641Z,0.00
2023-02-19T20:14:15.920Z,0.00
2023-02-19T20:16:44.406Z,0.00
2023-02-19T20:19:10.940Z,0.00
2023-02-19T20:21:37.212Z,0.00
2023-02-19T20:24:03.836Z,0.00
2023-02-19T20:26:30.524Z,0.00
2023-02-19T20:28:57.087Z,0.00
2023-02-19T20:31:24.041Z,0.00
2023-02-19T20:33:51.130Z,0.00
2023-02-19T20:36:18.012Z,0.00
2023-02-19T20:38:44.574Z,0.00
2023-02-19T20:41:11.358Z,0.03
2023-02-19T20:43:37.892Z,0.00
2023-02-19T20:46:04.283Z,0.00
2023-02-19T20:48:30.523Z,0.00
2023-02-19T20:50:59.395Z,0.10
2023-02-19T20:53:26.324Z,0.10
2023-02-19T20:55:52.592Z,0.00
2023-02-19T20:58:20.770Z,0.00
2023-02-19T21:00:47.438Z,0.00
2023-02-19T21:03:15.391Z,0.00
2023-02-19T21:05:42.865Z,0.10
2023-02-19T21:08:10.344Z,0.00
2023-02-19T21:10:36.633Z,0.00
2023-02-19T21:13:02.909Z,0.00
2023-02-19T21:15:29.279Z,0.10
2023-02-19T21:17:55.536Z,0.10
2023-02-19T21:20:21.807Z,0.20
2023-02-19T21:22:48.120Z,0.00
2023-02-19T21:25:14.660Z,0.00
2023-02-19T21:27:40.908Z,0.00
2023-02-19T21:30:07.461Z,0.20
2023-02-19T21:32:33.755Z,0.08
2023-02-19T21:35:00.027Z,0.10
2023-02-19T21:37:26.358Z,0.00
2023-02-19T21:39:52.751Z,0.00
2023-02-19T21:42:19.047Z,0.00
2023-02-19T21:44:46.761Z,0.08
2023-02-19T21:47:13.064Z,0.00
2023-02-19T21:49:41.656Z,0.00
2023-02-19T21:52:08.002Z,0.10
2023-02-19T21:54:34.301Z,0.00
2023-02-19T21:57:03.737Z,0.00
2023-02-19T21:59:32.088Z,0.10
2023-02-19T22:01:58.393Z,0.10
2023-02-19T22:04:24.688Z,0.10
2023-02-19T22:06:54.484Z,0.10
2023-02-19T22:09:20.878Z,0.10
2023-02-19T22:11:47.191Z,0.00
2023-02-19T22:14:13.461Z,0.00
2023-02-19T22:16:39.790Z,0.10
2023-02-19T22:19:06.229Z,0.00
2023-02-19T22:21:32.612Z,0.05
2023-02-19T22:23:59.152Z,0.00
2023-02-19T22:26:27.193Z,0.00
2023-02-19T22:28:54.080Z,0.00
2023-02-19T22:31:21.934Z,0.10
2023-02-19T22:33:48.472Z,0.05
2023-02-19T22:36:22.424Z,0.03
2023-02-19T22:38:49.043Z,0.00
2023-02-19T22:41:16.911Z,0.00
2023-02-19T22:43:43.161Z,0.00
2023-02-19T22:46:20.815Z,0.00
2023-02-19T22:48:47.473Z,0.00
2023-02-19T22:51:14.604Z,0.05
2023-02-19T22:53:44.699Z,0.00
2023-02-19T22:56:12.070Z,0.10
2023-02-19T22:58:38.985Z,0.10
2023-02-19T23:01:05.362Z,0.20
2023-02-19T23:03:31.758Z,0.10
2023-02-19T23:05:58.035Z,0.00
2023-02-19T23:08:24.333Z,0.00
2023-02-19T23:10:50.880Z,0.08
2023-02-19T23:13:17.162Z,0.10
2023-02-19T23:15:43.438Z,0.00
2023-02-19T23:18:09.726Z,0.10
2023-02-19T23:20:35.975Z,0.10
2023-02-19T23:23:02.245Z,0.00
2023-02-19T23:25:28.473Z,0.08
2023-02-19T23:27:54.745Z,0.25
2023-02-19T23:30:21.072Z,0.00
2023-02-19T23:32:47.346Z,0.00
2023-02-19T23:35:13.753Z,0.00
2023-02-19T23:37:40.061Z,0.10
2023-02-19T23:40:06.659Z,0.10
2023-02-19T23:42:32.975Z,0.00
2023-02-19T23:44:59.255Z,0.13
2023-02-19T23:47:26.532Z,0.00
2023-02-19T23:49:52.795Z,0.00
2023-02-19T23:52:19.193Z,0.10
2023-02-19T23:54:45.511Z,0.10
2023-02-19T23:57:12.850Z,0.00
2023-02-19T23:59:39.117Z,0.08
